• Join FlightAware (Why Join?)
  • Login
  • US Flag 
Rudolph Flight #1: Arrived! 
10:34PM EST


 

Airport Tracker/Info


-or-


 

Live Flight TrackerFlight Track Log ✈ N6711L ✈ 21-Dec-2013 ✈ KAPF - KMGM

Flight Track Log - Related Links

Times and Time Zones

All times are in EST time to prevent confusion due to time zone crossing. See the N6711L flight status page for this flight to view local times or setup timezone preferences in your user account.

Time Position Orientation Groundspeed Altitude Reporting Facility
EST Latitude Longitude Course Direction KTS MPH feet Rate Location/Type
09:17AM 26.4469 -81.8038 355° North  Level FlightAware Approximate
09:18AM 26.4959 -81.8085 355° North  Level FlightAware Approximate
09:19AM 26.5450 -81.8132 355° North  Level FlightAware Approximate
09:20AM 26.5941 -81.8179 355° North  Level FlightAware Approximate
09:21AM 26.6431 -81.8226 355° North  Level FlightAware Approximate
09:22AM 26.6922 -81.8273 355° North  Level FlightAware Approximate
09:23AM 26.7413 -81.8320 355° North  Level FlightAware Approximate
09:24AM 26.7903 -81.8367 355° North  Level FlightAware Approximate
09:25AM 26.8309 -81.8681 354° North  Level Estimated
09:26AM 26.8801 -81.8699 358° North  Level FlightAware Approximate
09:26AM 26.7775 -81.8636 357° North 193 222 6,200  Level Miami Center
09:27AM 26.9293 -81.8717 358° North  Level FlightAware Approximate
09:27AM 26.8275 -81.8681 355° North 214 246 6,200  Level Miami Center
09:28AM 26.9785 -81.8735 358° North  Level FlightAware Approximate
09:28AM 26.8836 -81.8750 354° North 206 237 6,200  Level Miami Center
09:29AM 27.0187 -81.9054 351° North  Level Estimated
09:29AM 26.9356 -81.8819 353° North 195 224 6,200  Level Miami Center
09:30AM 27.0679 -81.9082 357° North  Level FlightAware Approximate
09:30AM 26.9856 -81.8864 355° North 195 224 6,200  Level Miami Center
09:31AM 27.1171 -81.9109 357° North  Level FlightAware Approximate
09:31AM 27.0458 -81.8939 354° North 200 230 6,200  Level Miami Center
09:32AM 27.1663 -81.9137 357° North  Level FlightAware Approximate
09:32AM 27.0997 -81.9031 351° North 195 224 6,200  Level Miami Center
09:33AM 27.1539 -81.9078 356° North 195 224 6,200  Level Miami Center
09:34AM 27.2078 -81.9172 351° North 195 224 6,200  Level Miami Center
09:35AM 27.2619 -81.9217 356° North 195 224 6,200  Level Miami Center
09:36AM 27.3181 -81.9314 351° North 195 224 6,200  Level Miami Center
09:37AM 27.3719 -81.9383 353° North 195 224 6,200  Level Miami Center
09:38AM 27.4261 -81.9453 354° North 195 224 6,200  Level Miami Center
09:39AM 27.4800 -81.9503 355° North 195 224 6,200  Level Miami Center
09:40AM 27.5383 -81.9575 354° North 195 224 6,200 -120 Level Miami Center
09:41AM 27.5861 -81.9594 358° North 195 224 6,000  Descending Miami Center
09:42AM 27.6483 -81.9694 352° North 201 231 6,200 60 Climbing Miami Center
09:43AM 27.7025 -81.9764 354° North 201 231 6,200  Level Miami Center
09:44AM 27.7564 -81.9858 351° North 201 231 6,200  Level Miami Center
09:45AM 27.8144 -81.9933 353° North 201 231 6,200  Level Miami Center
09:46AM 27.8683 -82.0028 351° North 201 231 6,200  Level Miami Center
09:47AM 27.9000 -82.0000 North 199 229 6,200  Level Tampa TRACON
09:48AM 27.9667 -82.0167 348° North 200 230 6,200  Level Tampa TRACON
09:49AM 28.0000 -82.0333 336° Northwest 199 229 6,200  Level Tampa TRACON
09:50AM 28.0667 -82.0667 336° Northwest 198 228 6,200  Level Tampa TRACON
09:51AM 28.1167 -82.1000 330° Northwest 200 230 6,200  Level Tampa TRACON
09:52AM 28.1500 -82.1333 319° Northwest 198 228 6,200  Level Tampa TRACON
09:53AM 28.2000 -82.1500 344° North 198 228 6,200  Level Tampa TRACON
09:54AM 28.2500 -82.1833 330° Northwest 199 229 6,200 -60 Level Tampa TRACON
09:55AM 28.3000 -82.2167 330° Northwest 202 232 6,100 -60 Descending Tampa TRACON
09:56AM 28.3500 -82.2500 330° Northwest 203 234 6,100  Level Tampa TRACON
09:57AM 28.4000 -82.2833 330° Northwest 196 226 6,100  Level Tampa TRACON
09:58AM 28.4500 -82.3167 330° Northwest 197 227 6,100  Level Tampa TRACON
09:59AM 28.5000 -82.3333 344° North 198 228 6,100  Level Tampa TRACON
10:00AM 28.5500 -82.3667 330° Northwest 198 228 6,100  Level Tampa TRACON
10:01AM 28.5833 -82.4000 319° Northwest 195 224 6,100  Level Tampa TRACON
10:03AM 28.7086 -82.4783 333° Northwest 197 227 6,100  Level Jacksonville Center
10:04AM 28.7567 -82.5089 331° Northwest 197 227 6,100  Level Jacksonville Center
10:06AM 28.8089 -82.5419 331° Northwest 198 228 6,100  Level Jacksonville Center
10:06AM 28.8131 -82.5419 360° North 199 229 6,100  Level Jacksonville Center
10:06AM 28.8528 -82.5703 328° Northwest 199 229 6,100  Level Jacksonville Center
10:07AM 28.8611 -82.5750 334° Northwest 199 229 6,100  Level Jacksonville Center
10:08AM 28.9050 -82.6008 333° Northwest 206 237 6,100  Level Jacksonville Center
10:09AM 28.9511 -82.6317 330° Northwest 201 231 6,100  Level Jacksonville Center
10:10AM 29.0011 -82.6647 330° Northwest 201 231 6,100  Level Jacksonville Center
10:11AM 29.0492 -82.6931 333° Northwest 201 231 6,100  Level Jacksonville Center
10:12AM 29.0972 -82.7239 331° Northwest 201 231 6,100  Level Jacksonville Center
10:13AM 29.1453 -82.7547 331° Northwest 201 231 6,100  Level Jacksonville Center
10:14AM 29.1933 -82.7856 331° Northwest 201 231 6,100  Level Jacksonville Center
10:15AM 29.2414 -82.8189 329° Northwest 201 231 6,100  Level Jacksonville Center
10:16AM 29.2894 -82.8497 331° Northwest 201 231 6,100  Level Jacksonville Center
10:17AM 29.3375 -82.8806 331° Northwest 201 231 6,100  Level Jacksonville Center
10:18AM 29.3875 -82.9139 330° Northwest 206 237 6,100  Level Jacksonville Center
10:19AM 29.4356 -82.9450 331° Northwest 206 237 6,100  Level Jacksonville Center
10:20AM 29.4836 -82.9761 331° Northwest 206 237 6,100  Level Jacksonville Center
10:21AM 29.5336 -83.0072 332° Northwest 206 237 6,100  Level Jacksonville Center
10:22AM 29.5817 -83.0406 329° Northwest 206 237 6,100  Level Jacksonville Center
10:23AM 29.6214 -83.0836 317° Northwest 206 237 6,100  Level Jacksonville Center
10:24AM 29.6608 -83.1267 317° Northwest 196 226 6,100  Level Jacksonville Center
10:25AM 29.6983 -83.1700 315° West 196 226 6,100  Level Jacksonville Center
10:26AM 29.7378 -83.2156 315° West 196 226 6,100  Level Jacksonville Center
10:27AM 29.7733 -83.2611 312° West 196 226 6,100  Level Jacksonville Center
10:28AM 29.8128 -83.3067 315° West 196 226 6,100  Level Jacksonville Center
10:29AM 29.8503 -83.3500 315° West 196 226 6,100  Level Jacksonville Center
10:30AM 29.8856 -83.3933 313° West 196 226 6,100  Level Jacksonville Center
10:31AM 29.9231 -83.4389 314° West 196 226 6,100  Level Jacksonville Center
10:32AM 29.9603 -83.4822 315° West 196 226 6,100  Level Jacksonville Center
10:33AM 29.9997 -83.5281 315° West 196 226 6,100  Level Jacksonville Center
10:34AM 30.0350 -83.5717 313° West 196 226 6,100  Level Jacksonville Center
10:35AM 30.0725 -83.6175 313° West 196 226 6,100  Level Jacksonville Center
10:36AM 30.1075 -83.6586 315° West 196 226 6,100  Level Jacksonville Center
10:37AM 30.1492 -83.7092 314° West 196 226 6,100  Level Jacksonville Center
10:38AM 30.1822 -83.7503 313° West 191 220 6,100  Level Jacksonville Center
10:39AM 30.2194 -83.7939 315° West 191 220 6,100  Level Jacksonville Center
10:40AM 30.2608 -83.8400 316° Northwest 191 220 6,100  Level Jacksonville Center
10:41AM 30.2961 -83.8861 312° West 191 220 6,100  Level Jacksonville Center
10:42AM 30.3333 -83.9297 315° West 191 220 6,100 -60 Level Jacksonville Center
10:57AM 30.9000 -84.6236 313° West 189 217 6,000 -60 Descending Jacksonville Center
10:58AM 30.8822 -84.6118 313° West  Level FlightAware Approximate
10:58AM 30.9206 -84.6506 312° West 190 219 6,000  Level Jacksonville Center
10:59AM 30.9168 -84.6548 313° West  Level FlightAware Approximate
10:59AM 30.9594 -84.6950 316° Northwest 188 216 6,200  Level Jacksonville Center
11:00AM 30.9514 -84.6978 313° West  Level FlightAware Approximate
11:00AM 30.9942 -84.7417 311° West 186 214 6,200  Level Jacksonville Center
11:01AM 30.9859 -84.7409 313° West  Level FlightAware Approximate
11:01AM 31.0292 -84.7861 313° West 186 214 6,200  Level Jacksonville Center
11:02AM 31.0205 -84.7839 313° West  Level FlightAware Approximate
11:02AM 31.0661 -84.8328 313° West 191 220 6,100  Level Jacksonville Center
11:03AM 31.1050 -84.8772 316° Northwest 186 214 6,100  Level Jacksonville Center
11:04AM 31.1378 -84.9192 312° West 186 214 6,100  Level Jacksonville Center
11:05AM 31.1744 -84.9686 311° West 189 217 6,100  Level Jacksonville Center
11:06AM 31.2114 -85.0108 316° Northwest 190 219 6,100  Level Jacksonville Center
11:07AM 31.2483 -85.0578 313° West 190 219 6,100  Level Jacksonville Center
11:08AM 31.2831 -85.0997 314° West 190 219 6,100  Level Jacksonville Center
11:09AM 31.3197 -85.1494 311° West 191 220 6,100  Level Jacksonville Center
11:10AM 31.3586 -85.1942 316° Northwest 188 216 6,100  Level Jacksonville Center
11:11AM 31.3911 -85.2386 311° West 189 217 6,100  Level Jacksonville Center
11:12AM 31.4361 -85.2958 313° West 191 220 6,100  Level Jacksonville Center
11:13AM 31.4728 -85.3406 314° West 190 219 6,100  Level Jacksonville Center
11:14AM 31.5072 -85.3853 312° West 191 220 6,100  Level Jacksonville Center
11:15AM 31.5419 -85.4278 314° West 191 220 6,100  Level Jacksonville Center
11:16AM 31.5786 -85.4725 314° West 190 219 6,100  Level Jacksonville Center
11:17AM 31.6153 -85.5200 312° West 192 221 6,100  Level Jacksonville Center
11:18AM 31.6478 -85.5600 314° West 191 220 6,100  Level Jacksonville Center
11:19AM 31.6844 -85.6075 312° West 189 217 6,100  Level Jacksonville Center
11:20AM 31.7189 -85.6500 314° West 189 217 6,100  Level Jacksonville Center
11:21AM 31.7556 -85.7000 311° West 189 217 6,100  Level Jacksonville Center
11:23AM 31.8071 -85.7640 314° West  Level FlightAware Approximate
11:30AM 32.0505 -86.0728 312° West  Level FlightAware Approximate
11:31AM 32.0843 -86.1181 308° West  Level FlightAware Approximate
11:32AM 32.1159 -86.1655 308° West  Level FlightAware Approximate
11:33AM 32.1509 -86.2094 313° West  Level FlightAware Approximate
11:34AM 32.1860 -86.2533 313° West  Level FlightAware Approximate
11:35AM 32.2211 -86.2971 313° West  Level FlightAware Approximate
11:36AM 32.2569 -86.3402 320° Northwest  Level FlightAware Approximate
11:37AM 32.2959 -86.3792 320° Northwest  Level FlightAware Approximate
11:38AM 32.3000 -86.3833 320° Northwest  Level FlightAware Approximate
11:39AM 32.3006 -86.3940 320° Northwest  Level Estimated
11:40AM 32.3006 -86.3940 320° Northwest  Level Estimated
11:41AM 32.3006 -86.3940 320° Northwest  Level Estimated
11:42AM 32.3006 -86.3940 320° Northwest  Level Estimated
11:43AM 32.3006 -86.3940 320° Northwest  Level Estimated
11:44AM 32.3006 -86.3940 320° Northwest  Level Estimated
11:45AM 32.3006 -86.3940 320° Northwest  Level Estimated
11:46AM 32.3006 -86.3940 320° Northwest  Level Estimated
11:47AM 32.3006 -86.3940 320° Northwest  Level Estimated
11:48AM 32.3006 -86.3940 320° Northwest  Level Estimated
11:49AM 32.3006 -86.3940 320° Northwest  Level Estimated
11:50AM 32.3006 -86.3940 320° Northwest  Level Estimated
11:51AM 32.3006 -86.3940 320° Northwest  Level Estimated
11:52AM 32.3006 -86.3940 320° Northwest  Level Estimated
11:53AM 32.3006 -86.3940 320° Northwest  Level Estimated
11:54AM 32.3006 -86.3940 320° Northwest  Level Estimated